Flight Track Log - Related Links

Times and Time Zones

All times are in EDT time to prevent confusion due to time zone crossing. See the EJA604 flight status page for this flight to view local times or setup timezone preferences in your user account.


Time Position Orientation Groundspeed Altitude Reporting Facility
EDT Latitude Longitude Course Direction KTS MPH feet Rate Location/Type
Fri 01:59:18 PM 41.4000 -73.1833 236° Southwest 190 219 5,900  Level New York TRACON
Fri 02:00:24 PM 41.3833 -73.2500 252° West 194 223 5,900 50 Level New York TRACON
Fri 02:01:18 PM 41.3667 -73.3167 252° West 197 227 6,000 -100 Climbing New York TRACON
Fri 02:02:24 PM 41.3333 -73.4000 242° Southwest 220 253 5,700 -571 Descending New York TRACON
Fri 02:03:24 PM 41.3167 -73.4667 252° West 233 268 4,800 -895 Descending New York TRACON
Fri 02:04:00 PM 41.2942 -73.5119 236° Southwest  Level FlightAware Approximate
Fri 02:04:18 PM 41.3000 -73.5500 255° West 238 274 4,000  Level New York TRACON
Fri 02:05:24 PM 41.2667 -73.6333 242° Southwest 229 264 4,000  Level New York TRACON
Fri 02:06:24 PM 41.2667 -73.7167 270° West 227 261 4,000  Level New York TRACON
Fri 02:07:24 PM 41.2667 -73.8000 270° West 228 262 4,000  Level New York TRACON
Fri 02:08:24 PM 41.2500 -73.8833 255° West 227 261 4,000  Level New York TRACON
Fri 02:09:24 PM 41.2500 -73.9667 270° West 227 261 4,000  Level New York TRACON
Fri 02:10:24 PM 41.2333 -74.0500 255° West 227 261 4,000 -500 Level New York TRACON
Fri 02:11:24 PM 41.1833 -74.0667 194° South 208 239 3,000 -476 Descending New York TRACON
Fri 02:12:30 PM 41.1333 -74.0667 180° South 188 216 3,000 -350 Level New York TRACON
Fri 02:13:24 PM 41.0833 -74.0667 180° South 188 216 2,300 -526 Descending New York TRACON
Fri 02:14:24 PM 41.0333 -74.0500 166° South 178 205 2,000 -150 Descending New York TRACON
Fri 02:15:24 PM 40.9833 -74.0500 180° South 185 213 2,000 -158 Level New York TRACON
Fri 02:16:18 PM 40.9500 -74.0500 180° South 134 154 1,700 -450 Descending New York TRACON
Fri 02:17:24 PM 40.9167 -74.0500 180° South 112 129 1,100 -571 Descending New York TRACON
Fri 02:18:24 PM 40.8833 -74.0500 180° South 113 130 500 -600 Descending New York TRACON
Fri 02:20:00 PM 40.8500 -74.0500 114° Southeast  Level FlightAware Approximate

Login

Don't have an account? Register now (free) for customized features, flight alerts, and more!